Time;durP1;ratioP1;P1;durP2;ratioP2;P2;SDS_P1;SDS_P2;PMS_P1;PMS_P2;Temp;Humidity;BMP_temperature;BMP_pressure;BME280_temperature;BME280_humidity;BME280_pressure;Samples;Min_cycle;Max_cycle;Signal;HPM_P1;HPM_P2
2024/04/21 00:00:08;;;;;;;17.70;2.27;;;6.60;99.90;;;;;;5459692;26;20219;-85
2024/04/21 00:02:34;;;;;;;20.55;2.15;;;6.60;99.90;;;;;;5460164;26;20209;-85
2024/04/21 00:04:59;;;;;;;23.80;2.43;;;6.50;99.90;;;;;;5459827;26;20214;-85
2024/04/21 00:07:25;;;;;;;18.90;2.33;;;6.60;99.90;;;;;;5460174;26;20209;-85
2024/04/21 00:09:51;;;;;;;21.30;2.90;;;6.60;99.90;;;;;;5429768;26;20214;-85
2024/04/21 00:12:16;;;;;;;15.83;1.73;;;6.60;99.90;;;;;;5461599;26;20291;-85
2024/04/21 00:14:42;;;;;;;14.77;1.93;;;6.60;99.90;;;;;;5461738;26;20322;-85
2024/04/21 00:17:08;;;;;;;17.73;1.80;;;6.50;99.90;;;;;;5428497;26;20229;-85
2024/04/21 00:19:33;;;;;;;19.40;2.63;;;6.60;99.90;;;;;;5459587;26;20244;-85
2024/04/21 00:21:59;;;;;;;19.30;2.30;;;6.50;99.90;;;;;;5459837;26;20222;-85
2024/04/21 00:24:28;;;;;;;16.10;2.03;;;6.50;99.90;;;;;;5459574;26;20208;-85
2024/04/21 00:26:57;;;;;;;15.55;2.13;;;6.60;99.90;;;;;;5427282;26;20226;-84
2024/04/21 00:29:23;;;;;;;20.98;2.08;;;6.50;99.90;;;;;;5459451;26;20260;-85
2024/04/21 00:31:49;;;;;;;15.95;2.03;;;6.50;99.90;;;;;;5459588;26;20309;-85
2024/04/21 00:34:14;;;;;;;19.77;2.17;;;6.50;99.90;;;;;;5459639;26;20213;-85
2024/04/21 00:36:40;;;;;;;14.47;1.53;;;6.50;99.90;;;;;;5459670;26;20206;-84
2024/04/21 00:39:06;;;;;;;16.13;1.93;;;6.60;99.90;;;;;;5427181;26;20622;-84
2024/04/21 00:41:32;;;;;;;23.48;3.00;;;6.60;99.90;;;;;;5458690;26;20217;-85
2024/04/21 00:43:58;;;;;;;17.10;2.42;;;6.60;99.90;;;;;;5427306;26;20294;-86
2024/04/21 00:46:24;;;;;;;19.63;2.63;;;6.50;99.90;;;;;;5458853;26;20214;-85
2024/04/21 00:48:50;;;;;;;22.93;2.70;;;6.50;99.90;;;;;;5459561;26;20551;-87
2024/04/21 00:51:19;;;;;;;23.80;3.00;;;6.50;99.90;;;;;;5459678;26;20288;-85
2024/04/21 00:53:46;;;;;;;17.38;1.98;;;6.40;99.90;;;;;;5460003;26;20270;-86
2024/04/21 00:56:15;;;;;;;15.23;2.13;;;6.40;99.90;;;;;;5427543;26;20264;-86
2024/04/21 00:58:41;;;;;;;17.75;2.60;;;6.20;99.90;;;;;;5427418;26;20577;-86
2024/04/21 01:01:07;;;;;;;22.70;2.47;;;6.30;99.90;;;;;;5427349;26;20260;-85
2024/04/21 01:03:35;;;;;;;15.93;1.55;;;6.20;99.90;;;;;;5459272;26;20213;-85
2024/04/21 01:06:00;;;;;;;20.60;1.90;;;6.20;99.90;;;;;;5458355;26;20265;-86
2024/04/21 01:08:27;;;;;;;16.60;1.77;;;6.20;99.90;;;;;;5458844;26;20311;-85
2024/04/21 01:10:52;;;;;;;16.02;1.80;;;6.10;99.90;;;;;;5458890;26;20455;-86
2024/04/21 01:13:18;;;;;;;14.50;1.90;;;6.10;99.90;;;;;;5458777;26;20209;-85
2024/04/21 01:15:44;;;;;;;17.47;2.20;;;6.10;99.90;;;;;;5427215;26;20571;-87
2024/04/21 01:18:10;;;;;;;17.77;2.20;;;6.10;99.90;;;;;;5459134;26;20252;-86
2024/04/21 01:20:36;;;;;;;17.30;2.70;;;6.10;99.90;;;;;;5458405;26;20219;-86
2024/04/21 01:23:03;;;;;;;28.90;2.40;;;6.10;99.90;;;;;;5458759;26;20547;-85
2024/04/21 01:25:29;;;;;;;13.70;1.77;;;6.10;99.90;;;;;;5459183;26;20637;-85
2024/04/21 01:27:55;;;;;;;18.63;2.00;;;6.10;99.90;;;;;;5458536;26;20217;-86
2024/04/21 01:30:21;;;;;;;23.48;2.10;;;6.00;99.90;;;;;;5458738;26;20695;-85
2024/04/21 01:32:46;;;;;;;16.93;2.60;;;5.90;99.90;;;;;;5458557;26;20252;-85
2024/04/21 01:35:12;;;;;;;15.50;1.60;;;6.00;99.90;;;;;;5459205;26;20439;-86
2024/04/21 01:37:38;;;;;;;17.83;2.30;;;5.90;96.60;;;;;;5458711;26;20630;-86
2024/04/21 01:40:04;;;;;;;14.40;1.90;;;5.90;97.00;;;;;;5429027;26;20225;-85
2024/04/21 01:42:30;;;;;;;23.50;1.80;;;5.90;96.30;;;;;;5428702;26;20298;-86
2024/04/21 01:44:56;;;;;;;14.37;1.97;;;6.00;94.60;;;;;;5427559;26;20721;-85
2024/04/21 01:47:22;;;;;;;16.30;1.53;;;5.90;92.40;;;;;;5427995;26;20304;-86
2024/04/21 01:49:50;;;;;;;15.77;1.40;;;5.80;90.60;;;;;;5460238;26;20252;-85
2024/04/21 01:52:16;;;;;;;15.48;1.73;;;5.80;92.90;;;;;;5459715;26;20209;-85
2024/04/21 01:54:42;;;;;;;16.23;1.57;;;5.70;94.50;;;;;;5428076;26;20235;-86
2024/04/21 01:57:08;;;;;;;16.83;2.33;;;5.60;97.10;;;;;;5459301;26;20486;-84
2024/04/21 01:59:33;;;;;;;19.10;1.93;;;5.60;98.70;;;;;;5459444;26;20213;-85
2024/04/21 02:01:59;;;;;;;17.43;1.37;;;5.60;99.40;;;;;;5458993;26;20454;-84
2024/04/21 02:04:25;;;;;;;20.93;1.90;;;5.60;99.90;;;;;;5459562;26;20257;-85
2024/04/21 02:06:52;;;;;;;18.70;1.90;;;5.60;99.90;;;;;;5426900;26;20625;-84
2024/04/21 02:09:17;;;;;;;17.05;2.10;;;5.60;99.90;;;;;;5457687;26;20689;-85
2024/04/21 02:11:43;;;;;;;20.37;2.50;;;5.60;99.90;;;;;;5457306;26;20217;-85
2024/04/21 02:14:08;;;;;;;17.13;2.03;;;5.70;99.90;;;;;;5457633;26;20608;-85
2024/04/21 02:16:34;;;;;;;16.80;2.20;;;5.70;99.90;;;;;;5457387;26;20291;-85
2024/04/21 02:19:00;;;;;;;16.40;2.70;;;5.80;99.90;;;;;;5457857;26;20205;-84
2024/04/21 02:21:26;;;;;;;16.23;2.70;;;5.80;99.90;;;;;;5457209;26;20479;-85
2024/04/21 02:23:51;;;;;;;19.23;2.57;;;5.90;99.90;;;;;;5457404;26;20317;-85
2024/04/21 02:26:17;;;;;;;14.00;2.07;;;5.90;99.90;;;;;;5457777;26;20806;-85
2024/04/21 02:28:43;;;;;;;15.80;2.07;;;5.90;99.90;;;;;;5457102;26;20758;-85
2024/04/21 02:31:09;;;;;;;17.83;2.10;;;6.00;99.90;;;;;;5425566;26;20621;-85
2024/04/21 02:33:34;;;;;;;17.50;2.60;;;6.00;99.90;;;;;;5425602;26;20213;-84
2024/04/21 02:36:00;;;;;;;18.10;1.90;;;5.90;99.90;;;;;;5457167;26;20256;-87
2024/04/21 02:38:26;;;;;;;14.53;1.70;;;5.90;99.90;;;;;;5459196;26;20255;-87
2024/04/21 02:40:52;;;;;;;14.00;1.30;;;5.60;99.90;;;;;;5426679;26;20466;-87
2024/04/21 02:43:17;;;;;;;15.93;1.57;;;5.30;96.10;;;;;;5457309;26;20598;-87
2024/04/21 02:45:43;;;;;;;12.97;1.07;;;5.10;96.10;;;;;;5426665;26;20174;-88
2024/04/21 02:48:09;;;;;;;15.90;1.17;;;4.90;96.20;;;;;;5457613;26;20217;-87
2024/04/21 02:50:37;;;;;;;14.40;1.30;;;4.70;97.50;;;;;;5456858;26;20243;-88
2024/04/21 02:53:03;;;;;;;14.57;1.52;;;4.80;99.90;;;;;;5425124;26;20544;-87
2024/04/21 02:55:29;;;;;;;12.90;1.10;;;4.70;99.90;;;;;;5456748;26;20253;-87
2024/04/21 02:57:54;;;;;;;13.77;1.43;;;4.70;99.90;;;;;;5460382;26;20251;-87
2024/04/21 03:00:21;;;;;;;12.90;1.00;;;4.70;99.90;;;;;;5461418;26;20248;-87
2024/04/21 03:02:47;;;;;;;12.63;1.10;;;4.60;99.90;;;;;;5460701;26;20209;-87
2024/04/21 03:05:13;;;;;;;14.35;1.20;;;4.60;99.90;;;;;;5460862;26;20209;-87
2024/04/21 03:07:38;;;;;;;12.93;1.00;;;4.70;99.90;;;;;;5460100;26;20282;-85
2024/04/21 03:10:04;;;;;;;19.87;1.50;;;4.60;99.90;;;;;;5428445;26;20221;-85
2024/04/21 03:12:30;;;;;;;15.27;1.50;;;4.50;99.90;;;;;;5428787;26;20217;-85
2024/04/21 03:14:56;;;;;;;16.77;1.60;;;4.60;99.90;;;;;;5460950;26;20484;-85
2024/04/21 03:17:21;;;;;;;16.37;1.43;;;4.50;99.90;;;;;;5428838;26;20213;-85
2024/04/21 03:19:50;;;;;;;14.10;1.10;;;4.50;99.90;;;;;;5428101;26;20217;-86
2024/04/21 03:22:16;;;;;;;14.90;1.45;;;4.60;99.90;;;;;;5459753;26;20317;-85
2024/04/21 03:24:41;;;;;;;17.73;1.23;;;4.50;99.90;;;;;;5459833;26;20217;-85
2024/04/21 03:27:07;;;;;;;25.20;1.57;;;4.50;99.90;;;;;;5459160;26;20569;-85
2024/04/21 03:29:33;;;;;;;19.15;1.70;;;4.60;99.90;;;;;;5427522;26;20578;-86
2024/04/21 03:31:59;;;;;;;17.17;1.70;;;4.60;99.90;;;;;;5459310;26;20225;-85
2024/04/21 03:34:25;;;;;;;14.90;1.70;;;4.60;99.90;;;;;;5427696;26;20594;-85
2024/04/21 03:36:51;;;;;;;16.15;1.70;;;4.70;99.90;;;;;;5427414;26;20251;-86
2024/04/21 03:39:17;;;;;;;12.80;1.00;;;4.70;99.90;;;;;;5459912;26;20205;-86
2024/04/21 03:41:44;;;;;;;13.80;1.05;;;4.60;99.90;;;;;;5458947;26;20575;-85
2024/04/21 03:44:09;;;;;;;13.98;1.40;;;4.60;99.90;;;;;;5427279;26;20240;-85
2024/04/21 03:46:35;;;;;;;16.30;1.30;;;4.60;99.90;;;;;;5459076;26;20216;-86
2024/04/21 03:49:01;;;;;;;15.63;1.30;;;4.50;99.90;;;;;;5427175;26;20217;-85
2024/04/21 03:51:27;;;;;;;14.23;1.30;;;4.40;99.90;;;;;;5459066;26;20538;-86
2024/04/21 03:53:52;;;;;;;15.37;1.57;;;4.40;99.90;;;;;;5459531;26;20435;-85
2024/04/21 03:56:18;;;;;;;14.07;1.27;;;4.40;99.90;;;;;;5426490;26;20253;-87
2024/04/21 03:58:44;;;;;;;13.43;1.23;;;4.40;99.90;;;;;;5458652;26;20201;-87
2024/04/21 04:01:09;;;;;;;12.57;1.20;;;4.30;99.90;;;;;;5458755;26;20222;-87
2024/04/21 04:03:39;;;;;;;13.07;1.30;;;4.40;99.90;;;;;;5427171;26;20221;-87
2024/04/21 04:06:06;;;;;;;13.27;1.27;;;4.40;99.90;;;;;;5458685;26;20251;-87
2024/04/21 04:08:32;;;;;;;13.48;1.13;;;4.40;99.90;;;;;;5457811;26;20244;-86
2024/04/21 04:10:57;;;;;;;14.13;1.30;;;4.30;99.90;;;;;;5426690;26;20229;-87
2024/04/21 04:13:23;;;;;;;12.80;1.03;;;4.30;99.90;;;;;;5458341;26;20264;-87
2024/04/21 04:15:49;;;;;;;18.00;1.50;;;4.30;99.90;;;;;;5458464;26;20255;-87
2024/04/21 04:18:14;;;;;;;12.90;1.03;;;4.30;99.90;;;;;;5426579;26;20213;-87
2024/04/21 04:20:40;;;;;;;14.17;1.50;;;4.20;99.90;;;;;;5426988;26;20742;-86
2024/04/21 04:23:05;;;;;;;13.30;1.10;;;4.20;99.90;;;;;;5458207;26;20252;-86
2024/04/21 04:25:31;;;;;;;13.03;1.20;;;4.20;99.90;;;;;;5459098;26;20205;-85
2024/04/21 04:27:57;;;;;;;13.77;1.33;;;4.00;99.90;;;;;;5458394;26;20229;-86
2024/04/21 04:30:23;;;;;;;15.43;1.50;;;3.90;99.90;;;;;;5458151;26;20451;-85
2024/04/21 04:32:48;;;;;;;13.60;1.63;;;3.80;99.90;;;;;;5458525;26;20205;-86
2024/04/21 04:35:15;;;;;;;17.60;1.80;;;3.70;99.90;;;;;;5458175;26;20209;-86
2024/04/21 04:37:40;;;;;;;15.30;1.27;;;3.60;99.90;;;;;;5426240;26;20278;-86
2024/04/21 04:40:06;;;;;;;13.87;1.80;;;3.60;99.90;;;;;;5426762;26;20229;-85
2024/04/21 04:42:32;;;;;;;13.98;1.63;;;3.50;99.90;;;;;;5457961;26;20213;-85
2024/04/21 04:44:58;;;;;;;14.37;1.63;;;3.50;99.90;;;;;;5457903;26;20309;-85
2024/04/21 04:47:24;;;;;;;13.68;1.48;;;3.60;99.90;;;;;;5458458;26;20217;-86
2024/04/21 04:49:50;;;;;;;15.83;1.70;;;3.60;99.90;;;;;;5458315;26;20239;-86
2024/04/21 04:52:15;;;;;;;15.50;1.80;;;3.70;99.90;;;;;;5426368;26;20217;-85
2024/04/21 04:54:41;;;;;;;16.03;2.37;;;3.80;99.90;;;;;;5427373;26;20213;-85
2024/04/21 04:57:06;;;;;;;20.00;1.87;;;3.90;99.90;;;;;;5459359;26;20269;-85
2024/04/21 04:59:32;;;;;;;18.57;2.87;;;4.00;99.90;;;;;;5427948;26;20274;-86
2024/04/21 05:01:58;;;;;;;15.93;1.80;;;4.00;99.90;;;;;;5459550;26;20246;-86
2024/04/21 05:04:23;;;;;;;15.30;2.70;;;4.10;99.90;;;;;;5427503;26;20327;-86
2024/04/21 05:06:49;;;;;;;15.27;1.77;;;4.10;99.90;;;;;;5427300;26;20217;-86
2024/04/21 05:09:16;;;;;;;15.00;2.07;;;4.30;99.90;;;;;;5458774;26;20261;-86
2024/04/21 05:11:42;;;;;;;15.35;2.70;;;4.40;99.90;;;;;;5427410;26;20322;-85
2024/04/21 05:14:07;;;;;;;13.70;1.70;;;4.40;99.90;;;;;;5427184;26;20228;-86
2024/04/21 05:16:33;;;;;;;22.33;2.47;;;4.40;99.90;;;;;;5458557;26;20787;-85
2024/04/21 05:18:58;;;;;;;17.50;2.70;;;4.40;99.90;;;;;;5456922;26;20252;-85
2024/04/21 05:21:24;;;;;;;17.90;2.57;;;4.40;99.90;;;;;;5458154;26;20251;-85
2024/04/21 05:23:50;;;;;;;17.03;2.03;;;4.50;99.90;;;;;;5458621;26;20205;-86
2024/04/21 05:26:15;;;;;;;12.47;1.40;;;4.60;99.90;;;;;;5458573;26;20302;-86
2024/04/21 05:28:41;;;;;;;14.90;2.13;;;4.60;99.90;;;;;;5458534;26;20686;-85
2024/04/21 05:31:07;;;;;;;20.33;2.23;;;4.70;99.90;;;;;;5458464;26;20217;-85
2024/04/21 05:33:33;;;;;;;14.80;2.08;;;4.80;99.90;;;;;;5458063;26;20209;-86
2024/04/21 05:35:59;;;;;;;15.77;2.20;;;4.90;99.90;;;;;;5457704;26;20247;-86
2024/04/21 05:38:25;;;;;;;15.37;2.27;;;4.90;99.90;;;;;;5425999;26;20495;-86
2024/04/21 05:40:50;;;;;;;12.87;1.50;;;5.10;99.90;;;;;;5426445;26;20736;-85
2024/04/21 05:43:16;;;;;;;19.87;2.67;;;5.10;99.90;;;;;;5458306;26;20255;-86
2024/04/21 05:45:42;;;;;;;14.67;2.40;;;5.30;99.90;;;;;;5425729;26;20225;-86
2024/04/21 05:48:07;;;;;;;17.13;2.30;;;5.30;99.90;;;;;;5457376;26;20205;-86
2024/04/21 05:50:33;;;;;;;19.97;2.23;;;5.30;99.90;;;;;;5457812;26;20532;-86
2024/04/21 05:52:59;;;;;;;15.80;3.00;;;5.50;99.90;;;;;;5425743;26;20256;-86
2024/04/21 05:55:24;;;;;;;17.03;2.83;;;5.60;99.90;;;;;;5458233;26;20209;-85
2024/04/21 05:57:50;;;;;;;19.17;2.27;;;5.60;99.90;;;;;;5457576;26;20287;-86
2024/04/21 06:00:16;;;;;;;16.33;1.63;;;5.70;99.90;;;;;;5457944;26;20221;-85
2024/04/21 06:02:42;;;;;;;15.10;1.60;;;5.80;99.90;;;;;;5425257;26;20213;-86
2024/04/21 06:05:16;;;;;;;13.33;1.27;;;5.80;99.90;;;;;;5424923;26;20729;-86
2024/04/21 06:07:42;;;;;;;16.75;1.98;;;5.80;99.90;;;;;;5456278;26;20251;-85
2024/04/21 06:10:08;;;;;;;17.03;1.60;;;5.80;99.90;;;;;;5424779;26;20221;-85
2024/04/21 06:12:34;;;;;;;15.33;1.47;;;5.80;99.90;;;;;;5455746;26;20252;-85
2024/04/21 06:14:59;;;;;;;16.90;1.50;;;5.90;99.90;;;;;;5454615;26;20320;-84
2024/04/21 06:17:27;;;;;;;14.67;1.70;;;5.80;99.90;;;;;;5454068;26;20251;-85
2024/04/21 06:19:53;;;;;;;15.45;1.67;;;5.80;99.90;;;;;;5454034;26;20210;-85
2024/04/21 06:22:19;;;;;;;13.70;1.80;;;5.80;99.90;;;;;;5454346;26;20313;-85
2024/04/21 06:24:44;;;;;;;16.63;1.97;;;5.80;99.90;;;;;;5454515;26;20621;-85
2024/04/21 06:27:10;;;;;;;15.90;1.87;;;5.80;99.90;;;;;;5423500;26;20233;-85
2024/04/21 06:29:36;;;;;;;18.13;2.00;;;5.80;99.90;;;;;;5456057;26;20217;-85
2024/04/21 06:32:03;;;;;;;16.73;2.80;;;5.80;99.90;;;;;;5459250;26;20221;-85
2024/04/21 06:34:29;;;;;;;19.75;1.80;;;5.90;99.90;;;;;;5459475;26;20214;-86
2024/04/21 06:36:55;;;;;;;13.73;2.03;;;6.00;99.90;;;;;;5427925;26;20244;-85
2024/04/21 06:39:20;;;;;;;15.23;1.80;;;6.10;99.90;;;;;;5459630;26;20427;-85
2024/04/21 06:41:46;;;;;;;15.43;1.80;;;6.10;99.90;;;;;;5427919;26;20236;-86
2024/04/21 06:44:12;;;;;;;17.90;2.10;;;6.00;99.90;;;;;;5428842;26;20221;-85
2024/04/21 06:46:37;;;;;;;14.33;1.63;;;6.00;99.90;;;;;;5460513;26;20764;-84
2024/04/21 06:49:03;;;;;;;28.07;2.00;;;6.00;99.90;;;;;;5461177;26;20251;-86
2024/04/21 06:51:29;;;;;;;18.30;2.17;;;6.10;99.90;;;;;;5428797;26;20248;-85
2024/04/21 06:53:54;;;;;;;16.17;2.43;;;6.30;99.90;;;;;;5460614;26;20315;-85
2024/04/21 06:56:20;;;;;;;15.63;1.93;;;6.50;99.90;;;;;;5428515;26;20214;-85
2024/04/21 06:58:46;;;;;;;15.60;2.00;;;6.60;99.90;;;;;;5428911;26;20265;-86
2024/04/21 07:01:11;;;;;;;14.40;2.50;;;6.60;99.90;;;;;;5460247;26;20229;-85
2024/04/21 07:03:39;;;;;;;14.87;2.20;;;6.70;99.90;;;;;;5429127;26;20225;-86
2024/04/21 07:06:04;;;;;;;22.85;2.65;;;6.60;99.90;;;;;;5460171;26;20206;-84
2024/04/21 07:08:30;;;;;;;14.60;2.40;;;6.50;99.90;;;;;;5460502;26;20244;-85
2024/04/21 07:10:56;;;;;;;16.57;2.63;;;6.40;99.90;;;;;;5460387;26;20240;-85
2024/04/21 07:13:21;;;;;;;14.87;2.60;;;6.30;99.90;;;;;;5460589;26;20206;-85
2024/04/21 07:15:47;;;;;;;16.50;2.40;;;6.10;99.90;;;;;;5428908;26;20214;-86
2024/04/21 07:18:13;;;;;;;16.37;2.60;;;6.00;99.90;;;;;;5461256;26;20205;-86
2024/04/21 07:20:38;;;;;;;19.27;3.97;;;6.10;99.90;;;;;;5460571;26;20274;-85
2024/04/21 07:23:04;;;;;;;19.20;3.13;;;6.20;99.90;;;;;;5429180;26;20209;-84
2024/04/21 07:25:30;;;;;;;18.97;3.23;;;6.10;99.90;;;;;;5461568;26;20206;-85
2024/04/21 07:27:55;;;;;;;24.73;3.33;;;6.20;99.90;;;;;;5460861;26;20256;-85
2024/04/21 07:30:21;;;;;;;18.70;3.03;;;6.20;99.90;;;;;;5429493;26;20248;-85
2024/04/21 07:32:46;;;;;;;19.33;3.17;;;6.30;99.90;;;;;;5461598;26;20205;-84
2024/04/21 07:35:12;;;;;;;16.00;3.27;;;6.40;99.90;;;;;;5460782;26;20292;-84
2024/04/21 07:37:38;;;;;;;15.30;3.37;;;6.50;99.90;;;;;;5428194;26;20586;-86
2024/04/21 07:40:04;;;;;;;26.30;4.40;;;6.60;99.90;;;;;;5460233;26;20225;-85
2024/04/21 07:42:29;;;;;;;23.42;3.42;;;6.60;99.90;;;;;;5460936;26;20217;-86
2024/04/21 07:44:55;;;;;;;18.07;3.50;;;6.60;99.90;;;;;;5430339;26;20698;-86
2024/04/21 07:47:21;;;;;;;18.07;3.33;;;6.50;99.90;;;;;;5461837;26;20209;-85
2024/04/21 07:49:47;;;;;;;17.00;3.90;;;6.60;99.90;;;;;;5429547;26;20209;-85
2024/04/21 07:52:12;;;;;;;17.67;3.50;;;6.80;99.90;;;;;;5461661;26;20642;-86
2024/04/21 07:54:38;;;;;;;24.13;3.30;;;6.80;99.90;;;;;;5462139;26;20808;-85
2024/04/21 07:57:04;;;;;;;24.57;4.43;;;6.90;99.90;;;;;;5461951;26;20243;-85
2024/04/21 07:59:30;;;;;;;23.17;3.50;;;6.80;99.90;;;;;;5463070;26;20205;-86
2024/04/21 08:01:55;;;;;;;24.10;3.70;;;6.70;99.90;;;;;;5462508;26;20302;-86
2024/04/21 08:04:21;;;;;;;15.83;3.10;;;6.60;99.90;;;;;;5461901;26;20247;-85
2024/04/21 08:06:47;;;;;;;18.10;2.97;;;6.40;99.90;;;;;;5462876;26;20213;-86
2024/04/21 08:09:13;;;;;;;23.10;2.97;;;6.50;99.90;;;;;;5462488;26;20202;-86
2024/04/21 08:11:39;;;;;;;18.20;3.15;;;6.60;99.90;;;;;;5430937;26;20221;-86
2024/04/21 08:14:05;;;;;;;18.63;3.30;;;6.60;99.90;;;;;;5462060;26;20248;-85
2024/04/21 08:16:33;;;;;;;21.60;3.17;;;6.50;99.90;;;;;;5431471;26;20292;-85
2024/04/21 08:18:58;;;;;;;17.90;2.78;;;6.40;99.90;;;;;;5462600;26;20518;-85
2024/04/21 08:21:25;;;;;;;24.87;3.40;;;6.40;99.90;;;;;;5461744;26;20217;-86
2024/04/21 08:23:51;;;;;;;18.15;2.67;;;6.50;99.90;;;;;;5463287;26;21012;-85
2024/04/21 08:26:16;;;;;;;15.13;3.03;;;6.40;99.90;;;;;;5431293;26;20214;-85
2024/04/21 08:28:42;;;;;;;19.17;2.83;;;6.40;99.90;;;;;;5431091;26;20283;-86
2024/04/21 08:31:08;;;;;;;21.73;2.70;;;6.40;99.90;;;;;;5430661;26;20256;-86
2024/04/21 08:33:35;;;;;;;19.10;3.17;;;6.40;99.90;;;;;;5429568;26;20497;-86
2024/04/21 08:36:01;;;;;;;16.25;2.60;;;6.30;99.90;;;;;;5461929;26;20554;-85
2024/04/21 08:38:30;;;;;;;14.33;2.13;;;6.30;99.90;;;;;;5462076;26;20248;-85
2024/04/21 08:41:06;;;;;;;17.30;2.47;;;6.30;99.90;;;;;;5461694;26;20289;-85
2024/04/21 08:43:34;;;;;;;17.05;2.53;;;6.30;99.90;;;;;;5461732;26;20216;-86
2024/04/21 08:46:00;;;;;;;17.10;2.45;;;6.30;98.20;;;;;;5461670;26;20210;-85
2024/04/21 08:48:29;;;;;;;14.83;2.63;;;6.20;91.50;;;;;;5461546;26;20205;-86
2024/04/21 08:50:55;;;;;;;17.42;2.75;;;6.20;89.20;;;;;;5461205;26;20221;-85
2024/04/21 08:53:21;;;;;;;15.55;2.55;;;6.10;76.00;;;;;;5460354;26;20209;-85
2024/04/21 08:55:48;;;;;;;15.70;3.20;;;6.20;67.90;;;;;;5461465;26;20205;-84
2024/04/21 08:58:18;;;;;;;14.65;2.75;;;6.10;69.20;;;;;;5461825;26;20435;-86
2024/04/21 09:00:45;;;;;;;14.52;2.65;;;6.20;62.80;;;;;;5460039;26;20252;-85
2024/04/21 09:03:13;;;;;;;14.57;2.75;;;6.20;59.50;;;;;;5461190;26;20244;-85
2024/04/21 09:05:41;;;;;;;19.00;2.88;;;6.40;43.10;;;;;;5461945;26;20209;-85
2024/04/21 09:08:07;;;;;;;17.80;3.67;;;6.50;26.40;;;;;;5431629;26;20306;-86
2024/04/21 09:10:32;;;;;;;16.17;2.50;;;6.60;22.10;;;;;;5461702;26;20229;-85
2024/04/21 09:12:59;;;;;;;15.10;3.10;;;6.70;1.00;;;;;;5432040;26;20439;-85
2024/04/21 09:15:24;;;;;;;15.07;2.35;;;6.70;1.00;;;;;;5432074;26;20221;-85
2024/04/21 09:17:50;;;;;;;16.10;3.50;;;6.90;1.00;;;;;;5432863;26;20236;-86
2024/04/21 09:20:16;;;;;;;14.80;2.93;;;7.10;1.00;;;;;;5464623;26;20221;-85
2024/04/21 09:22:42;;;;;;;22.63;3.13;;;7.10;1.00;;;;;;5432354;26;20447;-85
2024/04/21 09:25:08;;;;;;;14.40;2.73;;;7.10;1.00;;;;;;5463922;26;20209;-85
2024/04/21 09:27:33;;;;;;;22.95;3.45;;;7.20;1.00;;;;;;5463240;26;20221;-85
2024/04/21 09:30:01;;;;;;;14.47;2.90;;;7.30;1.00;;;;;;5463698;26;20257;-85
2024/04/21 09:32:28;;;;;;;17.50;2.80;;;7.40;1.00;;;;;;5431161;26;20292;-86
2024/04/21 09:34:54;;;;;;;16.17;2.75;;;7.40;1.00;;;;;;5464015;26;20253;-86
2024/04/21 09:37:23;;;;;;;15.18;2.67;;;7.50;1.00;;;;;;5463839;26;20247;-85
2024/04/21 09:39:50;;;;;;;14.00;2.33;;;7.60;1.00;;;;;;5463969;26;20207;-85
2024/04/21 09:42:17;;;;;;;15.38;3.47;;;7.80;1.00;;;;;;5463524;26;20213;-86
2024/04/21 09:44:45;;;;;;;17.08;3.22;;;8.00;1.00;;;;;;5463572;26;20731;-86
2024/04/21 09:47:14;;;;;;;16.90;2.60;;;8.10;1.00;;;;;;5432019;26;20245;-85
2024/04/21 09:49:44;;;;;;;14.90;2.78;;;8.30;1.00;;;;;;5462588;26;20254;-85
2024/04/21 09:52:16;;;;;;;16.17;2.50;;;8.20;1.00;;;;;;5433178;26;20217;-85
2024/04/21 09:54:43;;;;;;;14.10;2.50;;;8.20;1.00;;;;;;5430849;26;20721;-86
2024/04/21 09:57:12;;;;;;;15.25;2.38;;;8.20;1.00;;;;;;5431762;26;20285;-85
2024/04/21 09:59:38;;;;;;;16.85;3.60;;;8.30;1.00;;;;;;5461943;26;20207;-86
2024/04/21 10:02:25;;;;;;;14.65;2.40;;;8.20;1.00;;;;;;5462966;26;20281;-85
2024/04/21 10:05:04;;;;;;;14.48;2.60;;;8.20;1.00;;;;;;5431304;26;20589;-86
2024/04/21 10:07:33;;;;;;;13.80;2.15;;;8.10;1.00;;;;;;5464164;26;20202;-85
2024/04/21 10:10:02;;;;;;;15.70;2.72;;;8.10;1.00;;;;;;5463334;26;20210;-86
2024/04/21 10:12:28;;;;;;;15.75;2.60;;;8.30;1.00;;;;;;5463086;26;20244;-85
2024/04/21 10:14:55;;;;;;;14.55;2.78;;;8.40;1.00;;;;;;5464168;26;20209;-86
2024/04/21 10:17:20;;;;;;;14.95;2.20;;;8.60;1.00;;;;;;5462057;26;20276;-86
2024/04/21 10:19:46;;;;;;;14.40;2.50;;;8.50;1.00;;;;;;5463135;26;20278;-85
2024/04/21 10:22:16;;;;;;;14.67;2.63;;;8.40;1.00;;;;;;5463542;26;20205;-85
2024/04/21 10:24:42;;;;;;;15.10;3.10;;;8.40;1.00;;;;;;5463831;26;20804;-86
2024/04/21 10:27:07;;;;;;;17.48;3.10;;;8.40;1.00;;;;;;5463623;26;20234;-85
2024/04/21 10:29:33;;;;;;;14.20;2.47;;;8.30;1.00;;;;;;5463924;26;20218;-86
2024/04/21 10:32:29;;;;;;;14.00;2.33;;;8.40;1.00;;;;;;5464519;26;20229;-86
2024/04/21 10:34:56;;;;;;;14.10;2.20;;;8.40;1.00;;;;;;5417652;26;20232;-85
2024/04/21 10:37:26;;;;;;;14.20;2.78;;;8.40;1.00;;;;;;5461525;26;20202;-86
2024/04/21 10:39:59;;;;;;;15.00;2.58;;;8.40;1.00;;;;;;5463021;26;20210;-86
2024/04/21 10:42:27;;;;;;;14.85;2.90;;;8.40;1.00;;;;;;5463364;26;20185;-87
2024/04/21 10:44:54;;;;;;;13.65;2.25;;;8.50;1.00;;;;;;5465470;26;20265;-86
2024/04/21 10:47:19;;;;;;;13.85;2.40;;;8.60;1.00;;;;;;5464603;26;20210;-86
2024/04/21 10:49:45;;;;;;;14.97;2.47;;;8.90;1.00;;;;;;5433309;26;20292;-86
2024/04/21 10:52:12;;;;;;;15.50;3.20;;;9.00;1.00;;;;;;5431442;26;20228;-85
2024/04/21 10:54:38;;;;;;;13.90;2.80;;;9.40;1.00;;;;;;5431819;26;20286;-87
2024/04/21 10:57:05;;;;;;;16.42;3.05;;;9.70;1.00;;;;;;5464051;26;20287;-86
2024/04/21 10:59:32;;;;;;;14.57;2.67;;;10.20;1.00;;;;;;5431321;26;20213;-86
2024/04/21 11:01:58;;;;;;;14.50;3.08;;;10.60;1.00;;;;;;5464515;26;20229;-86
2024/04/21 11:04:26;;;;;;;14.33;2.60;;;10.40;99.90;;;;;;5462927;26;20320;-85
2024/04/21 11:06:55;;;;;;;13.60;2.22;;;10.50;1.00;;;;;;5432288;26;20236;-87
2024/04/21 11:09:21;;;;;;;14.88;2.95;;;10.50;1.00;;;;;;5465242;26;20265;-87
2024/04/21 11:11:47;;;;;;;15.67;2.93;;;10.70;1.00;;;;;;5465163;26;20248;-86
2024/04/21 11:14:13;;;;;;;15.85;2.35;;;10.90;1.00;;;;;;5465332;26;20546;-86
2024/04/21 11:16:39;;;;;;;16.35;2.30;;;11.00;99.90;;;;;;5465061;26;20213;-86
2024/04/21 11:19:05;;;;;;;14.57;2.67;;;11.30;1.00;;;;;;5463913;26;20252;-86
2024/04/21 11:21:32;;;;;;;14.23;2.65;;;12.20;99.90;;;;;;5464436;26;20268;-85
2024/04/21 11:23:58;;;;;;;12.88;1.80;;;12.10;99.90;;;;;;5434825;26;20569;-86
2024/04/21 11:26:26;;;;;;;14.40;2.60;;;11.70;99.90;;;;;;5435316;26;20214;-87
2024/04/21 11:28:51;;;;;;;15.85;3.10;;;11.00;99.90;;;;;;5435498;26;20514;-85
2024/04/21 11:31:17;;;;;;;13.90;2.47;;;10.50;99.90;;;;;;5466537;26;20256;-86
2024/04/21 11:33:42;;;;;;;14.97;2.40;;;10.40;99.90;;;;;;5466221;26;20217;-85
2024/04/21 11:36:12;;;;;;;14.20;2.30;;;10.20;99.90;;;;;;5432611;26;20209;-85
2024/04/21 11:38:38;;;;;;;14.05;2.45;;;10.30;99.90;;;;;;5432121;26;20624;-84
2024/04/21 11:41:03;;;;;;;14.73;2.00;;;10.60;99.90;;;;;;5464716;26;20291;-84
2024/04/21 11:43:29;;;;;;;16.40;2.43;;;11.30;99.90;;;;;;5463775;26;20434;-85
2024/04/21 11:46:02;;;;;;;13.93;1.90;;;11.80;99.90;;;;;;5434451;26;20213;-85
2024/04/21 11:48:35;;;;;;;13.05;2.13;;;12.00;99.90;;;;;;5464458;26;20508;-85
2024/04/21 11:51:02;;;;;;;14.38;2.67;;;11.80;99.90;;;;;;5465300;26;20252;-85
2024/04/21 11:53:30;;;;;;;12.90;1.80;;;11.40;99.90;;;;;;5432185;26;20210;-84
2024/04/21 11:55:56;;;;;;;13.13;2.10;;;11.20;99.90;;;;;;5431267;26;20213;-85
2024/04/21 11:58:23;;;;;;;13.70;2.33;;;11.20;99.90;;;;;;5464841;26;20256;-86
2024/04/21 12:00:49;;;;;;;14.23;2.33;;;10.90;99.90;;;;;;5433673;26;20228;-85
2024/04/21 12:03:15;;;;;;;13.65;2.08;;;10.50;99.90;;;;;;5432651;26;20800;-87
2024/04/21 12:05:44;;;;;;;15.05;2.38;;;10.50;99.90;;;;;;5463984;26;20225;-86
2024/04/21 12:08:10;;;;;;;12.70;1.70;;;10.40;99.90;;;;;;5465997;26;20209;-85
2024/04/21 12:10:36;;;;;;;14.00;2.30;;;10.60;99.90;;;;;;5434136;26;20259;-85
2024/04/21 12:13:02;;;;;;;12.80;1.70;;;10.60;99.90;;;;;;5433585;26;20518;-85
2024/04/21 12:15:28;;;;;;;13.30;1.90;;;10.70;99.90;;;;;;5432457;26;20495;-86
2024/04/21 12:18:05;;;;;;;13.00;1.80;;;11.00;99.90;;;;;;5465367;26;20205;-87
2024/04/21 12:20:31;;;;;;;14.05;2.00;;;10.90;99.90;;;;;;5433911;26;20232;-85
2024/04/21 12:22:56;;;;;;;13.73;1.90;;;11.20;99.90;;;;;;5464821;26;20205;-85
2024/04/21 12:25:22;;;;;;;15.10;1.93;;;11.60;99.90;;;;;;5466322;26;20257;-86
2024/04/21 12:27:48;;;;;;;13.10;1.50;;;11.80;99.90;;;;;;5465773;26;20285;-85
2024/04/21 12:30:18;;;;;;;14.10;1.73;;;12.10;99.90;;;;;;5465034;26;20247;-85
2024/04/21 12:32:43;;;;;;;12.07;1.20;;;12.20;99.90;;;;;;5464102;26;20262;-85
2024/04/21 12:35:09;;;;;;;13.10;1.80;;;12.30;99.90;;;;;;5463749;26;20589;-84
2024/04/21 12:37:35;;;;;;;20.17;6.20;;;12.30;99.90;;;;;;5464656;26;20221;-86
2024/04/21 12:40:01;;;;;;;13.23;1.80;;;11.90;99.90;;;;;;5465276;26;20251;-85
2024/04/21 12:42:32;;;;;;;12.43;1.67;;;11.50;99.90;;;;;;5434034;26;20213;-85